Time;durP1;ratioP1;P1;durP2;ratioP2;P2;SDS_P1;SDS_P2;PMS_P1;PMS_P2;Temp;Humidity;BMP_temperature;BMP_pressure;BME280_temperature;BME280_humidity;BME280_pressure;Samples;Min_cycle;Max_cycle;Signal;HPM_P1;HPM_P2
2022/01/30 00:01:28;;;;;;;;;3.00;3.00;;;;;20.98;37.92;102691.22;5077690;27;45274;-57
2022/01/30 00:03:54;;;;;;;;;3.25;3.00;;;;;20.97;38.13;102695.63;5077886;27;45315;-57
2022/01/30 00:06:20;;;;;;;;;3.00;3.00;;;;;20.96;37.63;102693.03;5077944;27;45265;-52
2022/01/30 00:08:45;;;;;;;;;2.00;2.00;;;;;20.96;37.76;102693.91;5077555;27;45754;-56
2022/01/30 00:11:18;;;;;;;;;2.25;2.25;;;;;20.95;37.96;102672.84;5077490;27;45529;-50
2022/01/30 00:13:44;;;;;;;;;3.25;3.25;;;;;20.93;37.86;102678.16;5077611;27;45213;-55
2022/01/30 00:16:10;;;;;;;;;5.00;2.00;;;;;20.93;38.09;102682.59;5077985;28;45648;-55
2022/01/30 00:23:49;;;;;;;;;3.75;3.25;;;;;20.91;38.07;102689.66;5077480;27;45228;-51
2022/01/30 00:26:16;;;;;;;;;5.25;4.00;;;;;20.89;38.24;102683.56;5076250;28;45599;-54
2022/01/30 00:28:42;;;;;;;;;3.50;3.50;;;;;20.90;38.00;102686.16;5077248;27;46107;-52
2022/01/30 00:31:08;;;;;;;;;2.50;2.50;;;;;20.88;37.61;102682.72;5077500;27;45353;-56
2022/01/30 00:33:34;;;;;;;;;4.00;3.25;;;;;20.89;38.25;102680.94;5093253;27;45244;-54
2022/01/30 00:35:59;;;;;;;;;4.25;3.00;;;;;20.87;38.07;102675.72;5077401;27;45264;-59
2022/01/30 00:38:26;;;;;;;;;3.00;3.00;;;;;20.86;38.01;102668.72;5076684;27;45503;-57
2022/01/30 00:40:52;;;;;;;;;3.00;2.00;;;;;20.86;37.68;102666.06;5075886;27;45865;-61
2022/01/30 00:43:19;;;;;;;;;2.00;2.00;;;;;20.87;38.09;102667.81;5077321;27;45378;-56
2022/01/30 00:45:46;;;;;;;;;3.50;3.50;;;;;20.87;38.12;102666.94;5077271;27;45186;-53
2022/01/30 00:48:11;;;;;;;;;3.00;3.00;;;;;20.85;37.89;102659.06;5075863;27;45802;-57
2022/01/30 00:50:37;;;;;;;;;3.50;3.00;;;;;20.84;37.87;102660.81;5092746;27;45251;-57
2022/01/30 00:53:03;;;;;;;;;3.50;3.50;;;;;20.83;37.81;102661.75;5077049;27;45370;-58
2022/01/30 00:55:30;;;;;;;;;2.75;2.25;;;;;20.84;37.63;102657.34;5076353;27;45550;-59
2022/01/30 00:57:57;;;;;;;;;3.00;3.00;;;;;20.84;37.90;102662.59;5076816;27;46531;-58
2022/01/30 01:00:23;;;;;;;;;2.00;2.00;;;;;20.83;38.39;102655.59;5076712;27;45452;-49
2022/01/30 01:02:49;;;;;;;;;2.00;2.00;;;;;20.82;38.33;102645.97;5076950;27;45469;-47
2022/01/30 01:05:14;;;;;;;;;3.00;3.00;;;;;20.81;37.84;102642.47;5077029;27;45501;-49
2022/01/30 01:07:46;;;;;;;;;2.50;2.00;;;;;20.81;38.29;102644.25;5076941;27;45532;-47
2022/01/30 01:13:28;;;;;;;;;2.00;2.00;;;;;20.80;37.79;102647.78;5076625;27;45363;-51
2022/01/30 01:23:56;;;;;;;;;2.50;2.00;;;;;20.78;38.24;102631.16;5076551;27;45256;-55
2022/01/30 01:26:23;;;;;;;;;4.00;3.00;;;;;20.81;37.91;102628.44;5076947;27;45497;-53
2022/01/30 01:28:49;;;;;;;;;3.00;3.00;;;;;20.82;38.11;102616.97;5076542;27;45465;-54
2022/01/30 01:31:15;;;;;;;;;4.50;3.00;;;;;20.86;38.25;102629.19;5076475;27;46552;-49
2022/01/30 01:36:06;;;;;;;;;1.50;1.50;;;;;20.96;38.61;102635.91;5076847;27;45223;-54
2022/01/30 01:38:31;;;;;;;;;3.00;3.00;;;;;21.01;38.41;102630.50;5076454;27;46780;-59
2022/01/30 01:40:57;;;;;;;;;1.75;1.75;;;;;21.06;38.10;102628.59;5076421;27;45733;-57
2022/01/30 01:43:24;;;;;;;;;1.50;1.50;;;;;21.12;38.27;102631.06;5076551;27;45306;-50
2022/01/30 01:45:52;;;;;;;;;3.00;2.00;;;;;21.16;38.37;102622.16;5076648;27;45502;-53
2022/01/30 01:48:18;;;;;;;;;2.00;2.00;;;;;21.22;38.22;102631.63;5076193;27;46658;-57
2022/01/30 01:50:52;;;;;;;;;3.00;2.00;;;;;21.26;37.85;102638.56;5076580;27;45480;-52
2022/01/30 01:53:22;;;;;;;;;2.00;2.00;;;;;21.29;38.31;102627.03;5076213;27;45358;-51
2022/01/30 01:55:47;;;;;;;;;2.00;2.00;;;;;21.35;38.22;102633.91;5076425;27;45592;-51
2022/01/30 01:58:13;;;;;;;;;2.00;2.00;;;;;21.40;38.14;102629.38;5076387;27;46358;-57
2022/01/30 02:00:39;;;;;;;;;2.00;2.00;;;;;21.41;38.07;102629.31;5076010;27;45306;-57
2022/01/30 02:03:05;;;;;;;;;1.00;1.00;;;;;21.45;37.78;102628.31;5076247;27;45189;-50
2022/01/30 02:05:33;;;;;;;;;3.00;2.25;;;;;21.48;37.54;102627.34;5076405;27;45429;-55
2022/01/30 02:10:47;;;;;;;;;2.75;2.00;;;;;21.54;37.90;102636.84;5079701;27;45755;-59
2022/01/30 02:13:58;;;;;;;;;3.00;1.75;;;;;21.55;37.90;102628.03;5079921;27;45341;-55
2022/01/30 02:25:18;;;;;;;;;1.75;1.75;;;;;21.57;37.84;102603.31;5079572;28;45310;-50
2022/01/30 02:27:32;;;;;;;;;1.00;1.00;;;;;21.59;37.60;102614.72;5077406;28;45329;-54
2022/01/30 02:29:58;;;;;;;;;0.00;0.00;;;;;21.59;37.65;102617.34;5079131;27;45497;-51
2022/01/30 02:32:24;;;;;;;;;1.50;1.50;;;;;21.60;37.90;102615.59;5079001;27;45314;-53
2022/01/30 02:34:50;;;;;;;;;1.75;1.75;;;;;21.59;37.65;102612.06;5079263;27;45261;-52
2022/01/30 02:37:17;;;;;;;;;2.00;2.00;;;;;21.59;37.74;102612.06;5079703;27;45636;-57
2022/01/30 02:39:42;;;;;;;;;1.00;1.00;;;;;21.59;37.84;102609.44;5078961;27;46547;-59
2022/01/30 02:42:08;;;;;;;;;3.00;2.00;;;;;21.59;37.84;102614.72;5079046;27;45797;-53
2022/01/30 02:44:42;;;;;;;;;2.75;1.75;;;;;21.60;37.92;102612.97;5079109;27;45231;-55
2022/01/30 02:47:20;;;;;;;;;1.50;1.50;;;;;21.59;37.90;102620.00;5079200;27;45238;-60
2022/01/30 02:50:07;;;;;;;;;2.00;2.00;;;;;21.57;37.74;102613.00;5079119;27;47442;-58
2022/01/30 02:52:31;;;;;;;;;1.00;1.00;;;;;21.59;37.88;102611.22;5078880;27;45466;-60
2022/01/30 02:54:57;;;;;;;;;1.50;1.00;;;;;21.57;37.71;102616.50;5078853;27;45404;-58
2022/01/30 02:57:22;;;;;;;;;1.00;1.00;;;;;21.58;37.60;102626.16;5079068;27;45457;-56
2022/01/30 02:59:47;;;;;;;;;2.00;2.00;;;;;21.58;37.47;102623.50;5079001;27;45550;-60
2022/01/30 03:02:13;;;;;;;;;1.00;1.00;;;;;21.58;37.93;102618.22;5078662;27;45391;-60
2022/01/30 03:04:40;;;;;;;;;2.25;2.00;;;;;21.58;37.80;102623.50;5078806;27;45388;-57
2022/01/30 03:07:05;;;;;;;;;3.50;1.75;;;;;21.57;37.78;102627.06;5079045;27;45216;-59
2022/01/30 03:09:31;;;;;;;;;2.25;2.00;;;;;21.57;37.49;102623.56;5077336;27;45905;-59
2022/01/30 03:11:56;;;;;;;;;2.00;2.00;;;;;21.56;37.72;102617.41;5078189;28;45464;-57
2022/01/30 03:14:22;;;;;;;;;1.75;1.75;;;;;21.55;37.40;102623.59;5078805;27;45311;-60
2022/01/30 03:16:47;;;;;;;;;1.25;1.25;;;;;21.55;37.57;102623.59;5078617;27;45481;-54
2022/01/30 03:19:12;;;;;;;;;1.25;1.25;;;;;21.53;37.31;102628.09;5078387;27;46196;-54
2022/01/30 03:21:38;;;;;;;;;2.50;2.50;;;;;21.54;37.88;102631.56;5078418;27;45296;-60
2022/01/30 03:24:04;;;;;;;;;3.00;2.00;;;;;21.52;37.64;102620.19;5078408;27;45157;-57
2022/01/30 03:26:36;;;;;;;;;2.00;2.00;;;;;21.50;37.63;102620.25;5078713;27;45208;-57
2022/01/30 03:29:05;;;;;;;;;2.25;1.75;;;;;21.50;37.83;102622.88;5078123;27;46410;-60
2022/01/30 03:31:30;;;;;;;;;2.00;2.00;;;;;21.50;37.74;102622.88;5078277;27;45947;-57
2022/01/30 03:33:56;;;;;;;;;2.25;2.25;;;;;21.50;37.65;102635.22;5077049;27;45446;-55
2022/01/30 03:36:21;;;;;;;;;2.50;1.00;;;;;21.46;37.57;102626.53;5078463;27;45540;-55
2022/01/30 03:38:47;;;;;;;;;2.00;1.25;;;;;21.47;37.83;102629.13;5078399;27;45611;-56
2022/01/30 03:41:12;;;;;;;;;1.00;1.00;;;;;21.46;37.58;102640.59;5077921;27;45349;-57
2022/01/30 03:43:37;;;;;;;;;1.00;1.00;;;;;21.45;37.81;102625.69;5078255;28;45300;-52
2022/01/30 03:46:03;;;;;;;;;2.00;1.00;;;;;21.45;37.61;102623.03;5078334;27;45331;-55
2022/01/30 03:48:29;;;;;;;;;3.00;3.00;;;;;21.45;37.46;102632.72;5077912;27;45633;-57
2022/01/30 03:50:54;;;;;;;;;1.75;1.50;;;;;21.43;37.80;102629.28;5078046;27;45342;-59
2022/01/30 03:53:20;;;;;;;;;3.00;3.00;;;;;21.42;37.81;102623.13;5078334;27;45458;-52
2022/01/30 03:55:45;;;;;;;;;2.00;2.00;;;;;21.42;37.59;102619.63;5076902;28;45531;-58
2022/01/30 03:58:10;;;;;;;;;2.25;2.00;;;;;21.41;37.85;102615.28;5077675;27;45434;-54
2022/01/30 04:00:36;;;;;;;;;2.75;2.75;;;;;21.41;37.48;102623.19;5077708;27;45378;-57
2022/01/30 04:03:01;;;;;;;;;2.00;2.00;;;;;21.40;37.68;102629.38;5076712;28;45764;-52
2022/01/30 04:05:27;;;;;;;;;3.00;2.50;;;;;21.39;37.75;102633.75;5078029;27;45328;-53
2022/01/30 04:07:52;;;;;;;;;2.00;2.00;;;;;21.39;37.80;102630.28;5077523;27;46474;-53
2022/01/30 04:10:18;;;;;;;;;1.75;1.50;;;;;21.36;37.75;102633.88;5077945;27;45338;-54
2022/01/30 04:12:44;;;;;;;;;2.75;2.75;;;;;21.35;37.78;102637.41;5077703;27;45255;-56
2022/01/30 04:15:10;;;;;;;;;4.00;2.00;;;;;21.34;37.77;102634.81;5076467;28;45300;-46
2022/01/30 04:17:35;;;;;;;;;1.75;1.75;;;;;21.33;37.88;102639.22;5077419;27;46198;-51
2022/01/30 04:20:01;;;;;;;;;4.00;2.25;;;;;21.32;37.98;102640.13;5077429;27;45429;-54
2022/01/30 04:22:27;;;;;;;;;3.25;2.00;;;;;21.31;37.51;102641.03;5076187;27;45312;-51
2022/01/30 04:24:52;;;;;;;;;2.25;1.50;;;;;21.31;37.67;102647.19;5077944;27;45581;-45
2022/01/30 04:27:20;;;;;;;;;3.50;1.00;;;;;21.30;37.45;102647.22;5077579;28;45300;-53
2022/01/30 04:29:45;;;;;;;;;2.75;2.25;;;;;21.27;37.92;102637.66;5076497;27;45753;-52
2022/01/30 04:32:13;;;;;;;;;4.00;2.75;;;;;21.27;37.73;102645.56;5077431;27;45245;-60
2022/01/30 04:34:38;;;;;;;;;3.25;2.00;;;;;21.28;37.63;102651.69;5077578;27;45618;-60
2022/01/30 04:37:04;;;;;;;;;1.75;1.75;;;;;21.26;37.59;102649.09;5075797;27;47104;-61
2022/01/30 04:42:18;;;;;;;;;2.00;2.00;;;;;21.25;37.42;102657.06;5077236;27;45342;-60
2022/01/30 04:53:21;;;;;;;;;1.75;1.75;;;;;21.20;37.70;102665.13;5077210;27;45360;-58
2022/01/30 04:56:27;;;;;;;;;2.00;0.50;;;;;21.19;37.25;102667.78;5076824;27;45908;-60
2022/01/30 04:58:50;;;;;;;;;3.00;2.00;;;;;21.19;37.43;102665.13;5076611;28;45522;-60
2022/01/30 05:06:17;;;;;;;;;1.00;1.00;;;;;21.16;37.12;102663.47;5077156;27;45307;-60
2022/01/30 05:08:43;;;;;;;;;2.25;2.00;;;;;21.13;37.32;102651.25;5076808;28;45298;-59
2022/01/30 05:11:09;;;;;;;;;1.25;1.00;;;;;21.13;37.16;102658.28;5076546;27;45475;-59
2022/01/30 05:13:41;;;;;;;;;2.00;1.00;;;;;21.12;37.08;102669.72;5076936;27;45339;-59
2022/01/30 05:16:07;;;;;;;;;2.75;1.75;;;;;21.11;36.79;102671.50;5077025;27;45219;-57
2022/01/30 05:18:33;;;;;;;;;2.00;2.00;;;;;21.12;37.30;102682.91;5076509;27;45412;-52
2022/01/30 05:20:59;;;;;;;;;2.00;1.25;;;;;21.11;37.28;102673.28;5076483;27;45391;-57
2022/01/30 05:23:24;;;;;;;;;1.50;1.50;;;;;21.10;37.19;102663.66;5077154;27;45366;-47
2022/01/30 05:25:51;;;;;;;;;3.00;3.00;;;;;21.09;37.07;102675.09;5076902;28;45558;-52
2022/01/30 05:28:22;;;;;;;;;2.75;2.50;;;;;21.07;36.79;102675.13;5076356;27;45649;-55
2022/01/30 05:30:47;;;;;;;;;1.00;1.00;;;;;21.07;37.06;102680.41;5076515;27;45561;-54
2022/01/30 05:33:13;;;;;;;;;1.00;1.00;;;;;21.06;36.92;102685.72;5076568;27;45254;-52
2022/01/30 05:35:39;;;;;;;;;1.75;1.75;;;;;21.06;36.74;102688.38;5076652;27;45328;-56
2022/01/30 05:38:05;;;;;;;;;0.75;0.75;;;;;21.05;37.06;102689.28;5076378;28;46676;-54
2022/01/30 05:40:32;;;;;;;;;1.00;1.00;;;;;21.05;36.61;102691.91;5077398;27;45334;-57
2022/01/30 05:42:58;;;;;;;;;2.50;1.25;;;;;21.05;36.85;102689.28;5078829;28;45352;-51
2022/01/30 05:47:57;;;;;;;;;1.00;1.00;;;;;21.03;36.94;102689.31;5079688;27;45507;-54
2022/01/30 05:50:23;;;;;;;;;3.25;2.00;;;;;21.01;36.67;102694.63;5078764;28;45424;-52
2022/01/30 05:52:48;;;;;;;;;1.00;1.00;;;;;21.01;36.60;102692.00;5079996;27;45359;-54
2022/01/30 05:55:13;;;;;;;;;1.50;1.50;;;;;21.00;36.63;102690.25;5079950;27;45568;-56
2022/01/30 05:57:39;;;;;;;;;2.25;2.00;;;;;20.99;37.16;102696.47;5079658;27;46213;-59
2022/01/30 06:00:06;;;;;;;;;1.75;1.00;;;;;20.99;36.82;102695.56;5079706;27;45314;-58
2022/01/30 06:02:33;;;;;;;;;3.50;2.00;;;;;20.98;36.37;102693.84;5079722;27;45445;-54
2022/01/30 06:04:58;;;;;;;;;1.00;1.00;;;;;20.98;36.92;102700.00;5079928;27;45466;-52
2022/01/30 06:07:29;;;;;;;;;1.75;1.75;;;;;20.98;36.83;102700.00;5079367;27;45370;-54
2022/01/30 06:09:54;;;;;;;;;1.00;1.00;;;;;20.97;36.94;102700.03;5079765;27;45782;-52
2022/01/30 06:12:19;;;;;;;;;3.00;1.00;;;;;20.96;37.00;102693.91;5079548;27;45304;-48
2022/01/30 06:14:46;;;;;;;;;2.00;1.00;;;;;20.95;36.62;102694.81;5079638;27;45454;-54
2022/01/30 06:17:12;;;;;;;;;3.00;3.00;;;;;20.95;36.38;102702.72;5079334;28;45709;-56
2022/01/30 06:19:38;;;;;;;;;3.00;1.25;;;;;20.95;36.50;102702.72;5079393;27;45240;-60
2022/01/30 06:22:03;;;;;;;;;3.75;2.00;;;;;20.96;36.58;102715.00;5079519;27;45241;-60
2022/01/30 06:24:29;;;;;;;;;1.00;1.00;;;;;20.97;36.67;102715.84;5079798;27;45270;-44
2022/01/30 06:26:54;;;;;;;;;4.00;2.00;;;;;21.00;36.69;102724.53;5079467;27;45263;-51
2022/01/30 06:29:20;;;;;;;;;4.00;1.00;;;;;21.04;36.50;102724.44;5079397;27;45445;-56
2022/01/30 06:31:45;;;;;;;;;2.00;2.00;;;;;21.09;36.92;102727.84;5079252;27;45402;-57
2022/01/30 06:34:10;;;;;;;;;1.00;1.00;;;;;21.12;37.03;102725.09;5079211;27;45618;-53
2022/01/30 06:36:36;;;;;;;;;1.00;1.00;;;;;21.17;36.95;102729.34;5079052;27;46370;-55
2022/01/30 06:39:01;;;;;;;;;2.00;1.00;;;;;21.24;36.62;102734.44;5077659;28;45371;-53
2022/01/30 06:41:26;;;;;;;;;1.00;1.00;;;;;21.26;36.51;102722.94;5079467;27;45384;-57
2022/01/30 06:43:52;;;;;;;;;1.25;1.25;;;;;21.25;33.91;102723.84;5079549;27;45600;-64
2022/01/30 06:46:17;;;;;;;;;3.25;2.00;;;;;21.06;32.77;102723.50;5078865;27;45387;-62
2022/01/30 06:48:42;;;;;;;;;4.00;3.00;;;;;20.83;33.26;102721.50;5079058;27;45342;-60
2022/01/30 06:51:08;;;;;;;;;6.00;2.50;;;;;20.65;32.47;102730.72;5079134;27;45324;-64
2022/01/30 06:53:33;;;;;;;;;3.00;1.25;;;;;20.47;33.12;102722.38;5078535;27;45324;-61
2022/01/30 06:55:59;;;;;;;;;2.00;2.00;;;;;20.34;32.80;102726.22;5079059;27;46448;-60
2022/01/30 06:58:25;;;;;;;;;1.75;1.75;;;;;20.18;32.89;102731.84;5078836;28;45493;-65
2022/01/30 07:00:51;;;;;;;;;2.50;2.00;;;;;20.08;32.89;102725.06;5078930;27;45221;-65
2022/01/30 07:03:16;;;;;;;;;2.50;2.00;;;;;20.00;32.37;102725.28;5079143;27;45566;-62
2022/01/30 07:05:41;;;;;;;;;2.25;2.00;;;;;19.87;32.83;102726.44;5078640;27;46461;-68
2022/01/30 07:08:07;;;;;;;;;4.25;3.25;;;;;19.78;32.49;102733.63;5078687;27;45176;-64
2022/01/30 07:10:32;;;;;;;;;2.75;2.75;;;;;19.68;32.53;102729.44;5078992;27;45368;-56
2022/01/30 07:12:58;;;;;;;;;2.00;2.00;;;;;19.60;32.71;102726.97;5079157;27;45212;-56
2022/01/30 07:15:23;;;;;;;;;2.50;2.25;;;;;19.49;32.67;102718.44;5078434;27;45266;-60
2022/01/30 07:17:49;;;;;;;;;0.00;0.00;;;;;19.43;32.97;102734.34;5078639;27;45355;-52
2022/01/30 07:20:15;;;;;;;;;7.25;2.25;;;;;19.53;33.82;102735.03;5078611;27;45358;-53
2022/01/30 07:22:40;;;;;;;;;3.50;2.00;;;;;19.66;34.13;102739.13;5078711;27;45314;-56
2022/01/30 07:25:07;;;;;;;;;1.50;1.50;;;;;19.82;33.94;102749.31;5078274;27;46136;-52
2022/01/30 07:27:36;;;;;;;;;5.25;3.00;;;;;19.95;33.68;102745.53;5078345;27;45933;-58
2022/01/30 07:30:04;;;;;;;;;1.25;1.25;;;;;20.10;33.62;102754.00;5078678;27;45300;-60
2022/01/30 07:32:29;;;;;;;;;4.75;2.75;;;;;20.20;33.48;102764.28;5078809;27;45573;-62
2022/01/30 07:34:54;;;;;;;;;4.00;2.75;;;;;20.29;33.40;102757.94;5078128;27;46567;-54
2022/01/30 07:37:20;;;;;;;;;1.50;1.50;;;;;20.37;33.44;102771.78;5078222;27;45398;-62
2022/01/30 07:39:45;;;;;;;;;2.50;1.25;;;;;20.44;33.99;102780.41;5078339;27;45448;-65
2022/01/30 07:42:11;;;;;;;;;4.00;3.00;;;;;20.50;33.52;102774.13;5078449;28;45291;-59
2022/01/30 07:44:37;;;;;;;;;3.25;2.00;;;;;20.55;33.75;102777.50;5077992;27;45334;-65
2022/01/30 07:47:03;;;;;;;;;4.25;2.00;;;;;20.59;33.37;102779.16;5078254;27;45805;-47
2022/01/30 07:49:29;;;;;;;;;1.75;1.75;;;;;20.63;33.41;102775.53;5078433;27;45383;-64
2022/01/30 07:51:54;;;;;;;;;2.25;2.25;;;;;20.67;33.71;102786.88;5078418;27;45316;-62
2022/01/30 07:54:20;;;;;;;;;4.00;1.25;;;;;20.69;33.24;102779.81;5077917;27;46607;-57
2022/01/30 07:56:46;;;;;;;;;1.00;0.25;;;;;20.73;33.41;102786.69;5077983;27;45739;-65
2022/01/30 07:59:11;;;;;;;;;3.25;1.50;;;;;20.75;33.62;102789.34;5076724;28;45310;-61
2022/01/30 08:01:37;;;;;;;;;2.75;2.50;;;;;20.78;33.62;102791.91;5078070;27;45608;-64
2022/01/30 08:04:03;;;;;;;;;4.00;1.50;;;;;20.81;33.31;102797.09;5076866;27;45740;-64
2022/01/30 08:06:29;;;;;;;;;1.00;1.00;;;;;20.83;33.26;102795.28;5077890;27;45281;-57
2022/01/30 08:08:54;;;;;;;;;6.25;3.00;;;;;20.84;33.87;102799.66;5077921;27;45270;-54
2022/01/30 08:11:20;;;;;;;;;2.00;1.00;;;;;20.85;33.92;102798.75;5077841;27;45443;-55
2022/01/30 08:13:45;;;;;;;;;5.00;1.50;;;;;20.89;34.02;102805.66;5077624;27;46336;-52
2022/01/30 08:16:10;;;;;;;;;2.50;2.00;;;;;20.89;33.50;102807.44;5077538;27;45482;-61
2022/01/30 08:18:37;;;;;;;;;3.00;3.00;;;;;20.89;34.05;102803.03;5077788;27;45554;-63
2022/01/30 08:21:04;;;;;;;;;2.00;2.00;;;;;20.92;33.97;102812.66;5077898;27;45354;-65
2022/01/30 08:23:31;;;;;;;;;4.00;2.50;;;;;20.92;33.68;102807.38;5077923;27;47320;-57
2022/01/30 08:25:57;;;;;;;;;1.75;1.75;;;;;20.92;33.63;102810.84;5076319;28;45649;-64
2022/01/30 08:28:22;;;;;;;;;2.00;1.50;;;;;20.92;33.42;102802.94;5077499;27;45485;-64
2022/01/30 08:30:47;;;;;;;;;1.50;1.50;;;;;20.93;33.48;102803.84;5077599;27;45435;-65
2022/01/30 08:33:16;;;;;;;;;2.25;2.00;;;;;20.94;33.96;102805.56;5077347;27;45441;-61
2022/01/30 08:35:42;;;;;;;;;2.25;2.00;;;;;20.93;34.08;102802.06;5077177;27;45822;-61
2022/01/30 08:38:07;;;;;;;;;1.00;1.00;;;;;20.94;34.02;102801.16;5077320;27;45441;-64
2022/01/30 08:40:33;;;;;;;;;2.50;2.00;;;;;20.93;33.53;102804.69;5077606;27;45414;-57
2022/01/30 08:42:58;;;;;;;;;1.00;1.00;;;;;20.95;33.56;102802.00;5077016;27;46487;-65
2022/01/30 08:45:24;;;;;;;;;3.25;2.00;;;;;20.95;34.04;102802.88;5077147;27;45370;-50
2022/01/30 08:47:51;;;;;;;;;2.75;1.00;;;;;20.95;33.96;102794.97;5077273;27;45330;-60
2022/01/30 08:50:18;;;;;;;;;1.00;1.00;;;;;20.95;33.71;102802.00;5093021;27;45412;-63
2022/01/30 08:52:44;;;;;;;;;1.25;1.25;;;;;20.95;33.50;102813.44;5076765;27;45405;-56
2022/01/30 08:55:11;;;;;;;;;1.50;1.00;;;;;20.95;33.88;102807.28;5076900;27;45431;-61
2022/01/30 08:57:36;;;;;;;;;1.75;1.00;;;;;20.94;33.85;102806.41;5075905;28;45865;-46
2022/01/30 09:00:05;;;;;;;;;1.50;1.50;;;;;20.94;33.87;102801.16;5077536;28;45872;-58
2022/01/30 09:02:31;;;;;;;;;1.00;1.00;;;;;20.93;34.06;102796.78;5076794;27;48278;-62
2022/01/30 09:04:56;;;;;;;;;0.75;0.75;;;;;20.93;33.99;102809.97;5076933;27;45660;-61
2022/01/30 09:07:21;;;;;;;;;1.25;1.25;;;;;20.93;34.19;102815.22;5077077;27;45304;-60
2022/01/30 09:09:47;;;;;;;;;3.25;1.25;;;;;20.91;34.16;102808.28;5076839;28;45505;-65
2022/01/30 09:12:13;;;;;;;;;1.00;1.00;;;;;20.92;34.35;102813.50;5076586;27;45238;-65
2022/01/30 09:14:40;;;;;;;;;1.00;1.00;;;;;20.92;33.79;102808.22;5076412;27;45435;-63
2022/01/30 09:17:13;;;;;;;;;1.75;1.25;;;;;20.92;33.94;102805.59;5077420;27;45428;-64
2022/01/30 09:19:40;;;;;;;;;3.75;2.25;;;;;20.92;33.77;102802.94;5076889;27;45428;-62
2022/01/30 09:22:08;;;;;;;;;2.00;1.50;;;;;20.91;34.28;102805.63;5076796;27;46614;-64
2022/01/30 09:24:33;;;;;;;;;2.00;2.00;;;;;20.89;33.92;102808.28;5076772;27;45828;-65
2022/01/30 09:26:59;;;;;;;;;2.25;2.25;;;;;20.88;33.95;102811.88;5076723;27;45309;-63
2022/01/30 09:29:25;;;;;;;;;2.75;1.00;;;;;20.88;33.94;102816.25;5076758;27;45374;-66
2022/01/30 09:31:50;;;;;;;;;1.50;1.00;;;;;20.86;34.43;102818.94;5076258;27;46974;-65
2022/01/30 09:34:15;;;;;;;;;3.50;1.25;;;;;20.86;34.25;102816.31;5076397;27;47553;-61
2022/01/30 09:36:40;;;;;;;;;1.00;1.00;;;;;20.84;34.06;102815.47;5076623;27;45247;-64
2022/01/30 09:39:06;;;;;;;;;2.50;2.00;;;;;20.84;34.05;102821.59;5076708;27;45560;-59
2022/01/30 09:41:33;;;;;;;;;2.00;2.00;;;;;20.83;34.58;102819.88;5076258;27;46521;-59
2022/01/30 09:44:00;;;;;;;;;3.00;1.00;;;;;20.85;34.36;102825.97;5076369;27;45670;-56
2022/01/30 09:46:29;;;;;;;;;4.00;1.00;;;;;20.85;34.56;102822.47;5076511;27;45417;-60
2022/01/30 09:48:54;;;;;;;;;3.25;1.00;;;;;20.84;34.11;102826.84;5076526;27;45405;-60
2022/01/30 09:51:19;;;;;;;;;4.25;2.50;;;;;20.83;34.19;102819.00;5076230;27;46188;-62
2022/01/30 09:53:45;;;;;;;;;3.75;2.00;;;;;20.85;34.64;102818.06;5073806;27;45925;-61
2022/01/30 09:56:10;;;;;;;;;1.00;1.00;;;;;20.85;34.59;102822.47;5074951;27;45256;-56
2022/01/30 09:58:35;;;;;;;;;3.75;1.00;;;;;20.85;34.24;102825.09;5075977;27;45317;-62
2022/01/30 10:01:01;;;;;;;;;2.25;2.00;;;;;20.84;34.51;102823.38;5075274;27;46175;-60
2022/01/30 10:03:27;;;;;;;;;1.00;1.00;;;;;20.85;34.18;102827.75;5068891;27;45433;-61
2022/01/30 10:06:16;;;;;;;;;3.00;1.00;;;;;20.85;34.15;102823.31;5075646;27;45410;-58
2022/01/30 10:08:46;;;;;;;;;3.00;1.00;;;;;20.85;34.19;102823.31;5076017;27;45417;-62
2022/01/30 10:11:31;;;;;;;;;2.00;0.75;;;;;20.85;33.91;102825.09;5075380;27;46268;-58
2022/01/30 10:14:11;;;;;;;;;2.75;2.00;;;;;20.85;34.36;102833.00;5075339;27;45713;-62
2022/01/30 10:16:42;;;;;;;;;2.00;2.00;;;;;20.85;34.44;102822.47;5075374;27;45410;-56
2022/01/30 10:19:19;;;;;;;;;3.00;1.75;;;;;20.84;34.30;102815.47;5074661;28;45557;-63
2022/01/30 10:21:45;;;;;;;;;3.50;2.00;;;;;20.84;34.07;102823.38;5075654;28;46474;-57
2022/01/30 10:24:38;;;;;;;;;0.50;0.50;;;;;20.85;34.43;102827.75;5075660;27;45443;-57
2022/01/30 10:27:22;;;;;;;;;4.25;2.00;;;;;20.79;34.12;102814.69;5073938;27;45632;-63
2022/01/30 10:30:07;;;;;;;;;3.50;1.75;;;;;20.85;34.24;102823.31;5079253;27;45230;-63
2022/01/30 10:32:34;;;;;;;;;3.50;2.00;;;;;20.85;34.31;102822.47;5079011;27;45556;-58
2022/01/30 10:35:09;;;;;;;;;1.75;1.75;;;;;20.84;34.06;102818.09;5077632;28;45706;-59
2022/01/30 10:37:38;;;;;;;;;2.00;2.00;;;;;20.85;34.19;102825.97;5078934;27;45660;-61
2022/01/30 10:40:23;;;;;;;;;2.75;1.00;;;;;20.83;34.13;102811.97;5079307;27;45485;-63
2022/01/30 10:42:51;;;;;;;;;1.00;1.00;;;;;20.84;33.92;102812.84;5078743;27;45433;-62
2022/01/30 10:45:19;;;;;;;;;2.00;2.00;;;;;20.85;34.24;102817.19;5078988;27;45737;-57
2022/01/30 10:47:45;;;;;;;;;3.00;1.50;;;;;20.84;33.92;102820.75;5079048;28;45477;-60
2022/01/30 10:50:18;;;;;;;;;1.75;0.75;;;;;20.84;34.10;102820.75;5079364;27;45470;-63
2022/01/30 10:52:50;;;;;;;;;3.75;3.00;;;;;20.85;34.29;102817.19;5078892;27;46495;-56
2022/01/30 10:55:16;;;;;;;;;2.00;2.00;;;;;20.83;34.45;102819.88;5077332;28;45730;-58
2022/01/30 10:57:45;;;;;;;;;1.25;1.25;;;;;20.82;34.32;102809.38;5077922;28;45404;-63
2022/01/30 11:00:10;;;;;;;;;1.25;1.00;;;;;20.83;34.32;102808.47;5079030;27;45654;-63
2022/01/30 11:02:41;;;;;;;;;1.00;1.00;;;;;20.82;34.39;102807.63;5078040;27;46987;-58
2022/01/30 11:05:11;;;;;;;;;3.00;1.75;;;;;20.83;34.13;102811.09;5078404;27;45746;-63
2022/01/30 11:07:37;;;;;;;;;1.25;1.25;;;;;20.83;33.93;102811.09;5078667;27;45417;-58
2022/01/30 11:10:14;;;;;;;;;1.25;1.25;;;;;20.82;33.97;102806.72;5078830;27;45360;-62
2022/01/30 11:12:46;;;;;;;;;3.00;1.75;;;;;20.81;34.14;102808.50;5078794;27;46659;-59
2022/01/30 11:15:33;;;;;;;;;2.00;1.00;;;;;20.81;34.25;102810.25;5078864;27;45468;-56
2022/01/30 11:18:00;;;;;;;;;2.50;2.50;;;;;20.82;33.99;102802.34;5078577;27;45363;-61
2022/01/30 11:20:27;;;;;;;;;1.00;1.00;;;;;20.79;33.73;102799.78;5078786;27;45292;-62
2022/01/30 11:22:54;;;;;;;;;1.75;1.75;;;;;20.80;34.00;102798.88;5078195;27;45405;-62
2022/01/30 11:25:21;;;;;;;;;1.75;1.75;;;;;20.79;34.38;102797.13;5078288;27;45640;-62
2022/01/30 11:27:49;;;;;;;;;2.00;2.00;;;;;20.79;34.31;102797.13;5094285;27;45367;-59
2022/01/30 11:30:17;;;;;;;;;3.50;3.00;;;;;20.78;34.41;102795.41;5078489;27;45408;-60
2022/01/30 11:32:43;;;;;;;;;2.50;2.50;;;;;20.77;34.15;102788.41;5078506;27;45625;-52
2022/01/30 11:35:09;;;;;;;;;0.75;0.75;;;;;20.75;34.15;102779.66;5078606;28;45238;-63
2022/01/30 11:37:37;;;;;;;;;1.75;1.00;;;;;20.74;34.60;102777.94;5078365;28;45235;-59
2022/01/30 11:40:14;;;;;;;;;4.25;2.00;;;;;20.73;33.96;102770.03;5060148;28;45434;-56
2022/01/30 11:42:45;;;;;;;;;1.75;1.75;;;;;20.70;34.44;102776.25;5078177;27;46185;-57
2022/01/30 11:45:16;;;;;;;;;3.50;3.50;;;;;20.69;34.49;102770.09;5078368;27;45758;-56
2022/01/30 11:47:47;;;;;;;;;2.25;1.00;;;;;20.69;34.35;102772.75;5078388;27;45434;-60
2022/01/30 11:50:15;;;;;;;;;2.00;1.00;;;;;20.67;34.51;102764.00;5078558;27;45548;-57
2022/01/30 11:53:22;;;;;;;;;3.00;3.00;;;;;20.67;34.51;102755.25;5078273;27;46357;-57
2022/01/30 11:55:53;;;;;;;;;4.00;2.25;;;;;20.64;33.92;102750.94;5064379;27;45438;-59
2022/01/30 11:58:39;;;;;;;;;1.00;1.00;;;;;20.64;34.19;102750.94;5078162;27;45739;-57
2022/01/30 12:01:34;;;;;;;;;3.00;0.75;;;;;20.64;34.45;102748.31;5077969;28;45903;-61
2022/01/30 12:04:03;;;;;;;;;1.00;1.00;;;;;20.63;34.28;102741.31;5077641;27;47497;-59
2022/01/30 12:06:30;;;;;;;;;2.25;1.50;;;;;20.63;34.28;102741.31;5077666;28;45369;-57
2022/01/30 12:08:57;;;;;;;;;1.00;1.00;;;;;20.65;34.58;102741.25;5077679;27;45481;-56
2022/01/30 12:11:37;;;;;;;;;5.75;1.50;;;;;20.65;34.29;102742.13;5076575;27;45432;-56
2022/01/30 12:14:21;;;;;;;;;1.25;1.25;;;;;20.65;34.59;102736.88;5077530;27;45572;-61
2022/01/30 12:16:57;;;;;;;;;3.00;1.25;;;;;20.66;34.17;102742.97;5077540;27;45768;-58